Time;durP1;ratioP1;P1;durP2;ratioP2;P2;SDS_P1;SDS_P2;PMS_P1;PMS_P2;Temp;Humidity;BMP_temperature;BMP_pressure;BME280_temperature;BME280_humidity;BME280_pressure;Samples;Min_cycle;Max_cycle;Signal;HPM_P1;HPM_P2
2022/10/27 00:00:40;;;;;;;15.70;9.13;;;11.80;99.90;;;;;;5032629;28;21206;-88
2022/10/27 00:03:09;;;;;;;13.83;9.90;;;11.30;99.90;;;;;;5046309;28;20626;-88
2022/10/27 00:05:35;;;;;;;12.30;9.50;;;11.70;99.90;;;;;;5034242;28;20668;-88
2022/10/27 00:08:02;;;;;;;14.57;9.30;;;11.60;99.90;;;;;;5048635;28;20660;-88
2022/10/27 00:10:29;;;;;;;12.23;9.00;;;11.60;99.90;;;;;;5048038;28;20625;-88
2022/10/27 00:12:56;;;;;;;11.90;9.20;;;11.50;99.90;;;;;;5049360;28;21156;-88
2022/10/27 00:15:24;;;;;;;12.07;10.40;;;11.40;99.90;;;;;;5044370;28;20626;-88
2022/10/27 00:17:51;;;;;;;14.27;10.30;;;11.30;99.90;;;;;;5049241;28;20665;-88
2022/10/27 00:20:18;;;;;;;13.20;10.50;;;11.20;99.90;;;;;;5049453;28;20664;-89
2022/10/27 00:22:44;;;;;;;13.77;11.00;;;11.60;99.90;;;;;;5042401;28;20618;-88
2022/10/27 00:25:11;;;;;;;15.10;10.17;;;11.30;99.90;;;;;;5044099;28;20637;-88
2022/10/27 00:27:38;;;;;;;15.57;11.30;;;11.20;99.90;;;;;;5046015;28;21110;-89
2022/10/27 00:30:06;;;;;;;20.50;11.30;;;11.20;99.90;;;;;;5047473;28;20626;-89
2022/10/27 00:32:34;;;;;;;14.30;11.23;;;11.30;99.90;;;;;;5045967;28;20622;-88
2022/10/27 00:35:01;;;;;;;17.50;10.80;;;11.00;99.90;;;;;;5042176;28;20725;-89
2022/10/27 00:37:28;;;;;;;13.67;11.73;;;11.20;99.90;;;;;;5042552;28;20669;-89
2022/10/27 00:39:55;;;;;;;13.50;11.07;;;11.00;99.90;;;;;;5044336;28;21003;-88
2022/10/27 00:42:22;;;;;;;12.83;11.47;;;11.50;99.90;;;;;;5056243;28;20618;-89
2022/10/27 00:44:49;;;;;;;17.93;12.90;;;11.50;99.90;;;;;;5043814;28;20989;-89
2022/10/27 00:47:23;;;;;;;18.00;11.97;;;11.10;99.90;;;;;;5047414;28;20626;-88
2022/10/27 00:49:58;;;;;;;14.13;11.50;;;11.10;99.90;;;;;;5034854;28;20638;-88
2022/10/27 00:52:31;;;;;;;12.93;10.80;;;11.40;99.90;;;;;;5045300;28;20626;-89
2022/10/27 00:55:02;;;;;;;20.07;11.97;;;11.30;99.90;;;;;;5044193;28;20625;-88
2022/10/27 00:57:30;;;;;;;17.93;10.90;;;11.40;99.90;;;;;;5027939;28;20657;-88
2022/10/27 00:59:58;;;;;;;17.97;11.27;;;10.90;99.90;;;;;;5042293;28;20641;-88
2022/10/27 01:02:25;;;;;;;15.57;12.10;;;10.90;99.90;;;;;;5046196;28;21178;-88
2022/10/27 01:04:56;;;;;;;20.67;12.80;;;11.20;99.90;;;;;;5046224;28;20622;-88
2022/10/27 01:07:25;;;;;;;17.07;13.40;;;10.70;99.90;;;;;;5045885;28;20661;-88
2022/10/27 01:09:52;;;;;;;14.40;11.50;;;10.80;99.90;;;;;;5045586;28;20622;-89
2022/10/27 01:12:18;;;;;;;19.33;12.70;;;10.90;99.90;;;;;;5043508;28;20626;-88
2022/10/27 01:14:46;;;;;;;22.00;12.67;;;10.70;99.90;;;;;;5043510;28;21154;-88
2022/10/27 01:17:41;;;;;;;20.23;11.17;;;10.70;99.90;;;;;;5040866;28;21035;-88
2022/10/27 01:20:50;;;;;;;16.97;11.70;;;11.00;99.90;;;;;;5031297;28;20666;-88
2022/10/27 01:23:33;;;;;;;18.87;12.80;;;10.60;99.90;;;;;;4995765;28;20664;-89
2022/10/27 01:26:26;;;;;;;16.60;13.50;;;11.10;99.90;;;;;;5043827;28;20605;-88
2022/10/27 01:29:38;;;;;;;22.80;14.70;;;10.80;99.90;;;;;;5046352;28;20630;-88
2022/10/27 01:32:16;;;;;;;18.47;12.07;;;10.90;99.90;;;;;;4982046;28;20641;-88
2022/10/27 01:34:47;;;;;;;18.60;14.17;;;10.70;99.90;;;;;;5019229;28;20621;-88
2022/10/27 01:37:20;;;;;;;13.73;9.70;;;10.90;99.90;;;;;;5041990;28;20666;-88
2022/10/27 01:39:53;;;;;;;20.23;13.80;;;10.80;99.90;;;;;;5051873;28;20634;-88
2022/10/27 01:42:27;;;;;;;17.27;13.97;;;10.50;99.90;;;;;;5045533;28;20646;-87
2022/10/27 01:44:57;;;;;;;16.23;12.97;;;10.40;99.90;;;;;;5045917;28;20634;-88
2022/10/27 01:47:26;;;;;;;15.73;12.00;;;10.50;99.90;;;;;;5039708;28;20670;-88
2022/10/27 01:49:54;;;;;;;16.40;11.00;;;10.60;99.90;;;;;;5039592;28;20622;-88
2022/10/27 01:52:44;;;;;;;16.23;12.00;;;10.30;99.90;;;;;;5042271;28;20671;-88
2022/10/27 01:55:15;;;;;;;20.60;14.07;;;10.50;99.90;;;;;;5032945;28;20619;-88
2022/10/27 01:58:00;;;;;;;16.90;13.37;;;10.40;99.90;;;;;;5044231;28;20642;-88
2022/10/27 02:00:27;;;;;;;16.90;13.30;;;10.60;99.90;;;;;;5075334;28;20655;-88
2022/10/27 02:03:00;;;;;;;15.80;12.10;;;10.40;99.90;;;;;;5064116;28;20625;-88
2022/10/27 02:05:35;;;;;;;17.40;11.47;;;10.40;99.90;;;;;;5053098;28;20656;-88
2022/10/27 02:08:09;;;;;;;18.50;12.60;;;10.20;99.90;;;;;;5043785;28;20649;-88
2022/10/27 02:10:43;;;;;;;13.50;11.30;;;10.80;99.90;;;;;;5050072;28;20630;-88
2022/10/27 02:13:12;;;;;;;16.90;11.90;;;10.30;99.90;;;;;;5045136;28;20994;-88
2022/10/27 02:15:42;;;;;;;36.33;12.90;;;10.10;99.90;;;;;;5047458;28;20627;-87
2022/10/27 02:18:14;;;;;;;22.17;12.80;;;10.50;99.90;;;;;;5046269;28;20646;-88
2022/10/27 02:20:43;;;;;;;18.80;13.20;;;10.20;99.90;;;;;;5044970;28;21277;-88
2022/10/27 02:23:16;;;;;;;21.40;12.77;;;10.20;99.90;;;;;;5048738;28;20645;-89
2022/10/27 02:25:52;;;;;;;15.80;10.90;;;10.20;99.90;;;;;;5043459;28;20621;-87
2022/10/27 02:28:22;;;;;;;22.37;12.70;;;10.50;99.90;;;;;;5044225;28;21189;-89
2022/10/27 02:30:50;;;;;;;29.37;16.70;;;10.50;99.90;;;;;;5046798;28;20989;-88
2022/10/27 02:33:19;;;;;;;51.70;20.63;;;10.30;99.90;;;;;;5048778;28;20657;-87
2022/10/27 02:35:45;;;;;;;24.80;14.53;;;10.60;99.90;;;;;;5047361;28;20613;-88
2022/10/27 02:38:13;;;;;;;30.97;14.27;;;10.30;99.90;;;;;;5044371;28;21015;-88
2022/10/27 02:40:40;;;;;;;150.87;24.00;;;10.50;99.90;;;;;;5041295;28;20662;-88
2022/10/27 02:43:06;;;;;;;265.43;36.70;;;10.20;99.90;;;;;;5035153;28;21000;-88
2022/10/27 02:45:33;;;;;;;117.17;26.10;;;10.00;99.90;;;;;;5043637;28;20633;-88
2022/10/27 02:48:00;;;;;;;59.17;21.80;;;10.50;99.90;;;;;;5047067;28;20658;-88
2022/10/27 02:50:28;;;;;;;41.53;21.43;;;10.00;99.90;;;;;;5045951;28;21002;-88
2022/10/27 02:52:55;;;;;;;22.10;18.60;;;10.10;99.90;;;;;;5047746;28;20995;-88
2022/10/27 02:55:22;;;;;;;23.90;17.67;;;10.00;99.90;;;;;;5049193;28;20991;-88
2022/10/27 02:57:48;;;;;;;20.10;16.97;;;10.30;99.90;;;;;;5044604;28;21399;-88
2022/10/27 03:00:17;;;;;;;21.60;16.37;;;10.00;99.90;;;;;;5044975;28;20998;-87
2022/10/27 03:02:43;;;;;;;17.50;15.70;;;10.40;99.90;;;;;;5041364;28;20670;-88
2022/10/27 03:05:11;;;;;;;20.53;16.30;;;10.00;99.90;;;;;;5047371;28;20626;-88
2022/10/27 03:07:39;;;;;;;23.50;15.90;;;10.30;99.90;;;;;;5043033;28;20654;-88
2022/10/27 03:10:06;;;;;;;25.50;15.30;;;10.10;99.90;;;;;;5042775;28;20625;-88
2022/10/27 03:12:33;;;;;;;21.50;15.20;;;10.20;99.90;;;;;;5043610;28;20614;-88
2022/10/27 03:15:00;;;;;;;17.93;15.37;;;10.30;99.90;;;;;;5047611;28;20644;-88
2022/10/27 03:17:27;;;;;;;22.23;13.53;;;9.60;99.90;;;;;;5046916;28;20648;-88
2022/10/27 03:19:53;;;;;;;17.83;14.57;;;9.70;99.90;;;;;;5041491;28;20622;-88
2022/10/27 03:22:20;;;;;;;25.23;14.97;;;9.90;99.90;;;;;;5043441;28;20768;-87
2022/10/27 03:24:48;;;;;;;18.03;13.30;;;9.90;99.90;;;;;;5045090;28;20634;-88
2022/10/27 03:27:15;;;;;;;17.03;14.80;;;9.90;99.90;;;;;;5044655;28;20964;-88
2022/10/27 03:29:42;;;;;;;19.00;14.70;;;10.10;99.90;;;;;;5046036;28;21183;-88
2022/10/27 03:32:08;;;;;;;20.87;13.73;;;9.80;99.90;;;;;;5048282;28;20620;-88
2022/10/27 03:34:35;;;;;;;15.20;13.13;;;9.70;99.90;;;;;;5045956;28;20648;-89
2022/10/27 03:37:02;;;;;;;14.53;13.07;;;9.70;99.90;;;;;;5043275;28;20661;-88
2022/10/27 03:39:28;;;;;;;17.47;13.93;;;10.30;99.90;;;;;;5047398;28;20623;-88
2022/10/27 03:41:57;;;;;;;16.23;13.00;;;10.10;99.90;;;;;;5044783;28;21217;-88
2022/10/27 03:44:23;;;;;;;13.63;12.23;;;10.00;99.90;;;;;;5046114;28;20637;-88
2022/10/27 03:46:50;;;;;;;16.20;13.67;;;9.50;99.90;;;;;;5041435;28;20651;-88
2022/10/27 03:49:17;;;;;;;16.60;14.80;;;9.50;99.90;;;;;;5045312;28;20633;-88
2022/10/27 03:51:44;;;;;;;18.60;15.37;;;9.40;99.90;;;;;;5049056;28;20628;-89
2022/10/27 03:54:10;;;;;;;15.07;12.90;;;9.50;99.90;;;;;;5050346;28;20627;-87
2022/10/27 03:56:37;;;;;;;14.33;11.07;;;9.50;99.90;;;;;;5065955;28;20672;-87
2022/10/27 03:59:05;;;;;;;14.70;12.80;;;9.40;99.90;;;;;;5076450;28;20644;-87
2022/10/27 04:01:34;;;;;;;14.27;11.50;;;9.40;99.90;;;;;;5043909;28;20654;-87
2022/10/27 04:04:03;;;;;;;13.27;11.87;;;9.40;99.90;;;;;;5046791;28;20653;-86
2022/10/27 04:06:30;;;;;;;13.90;10.60;;;9.80;99.90;;;;;;5050536;28;20651;-86
2022/10/27 04:08:57;;;;;;;18.67;13.37;;;9.30;99.90;;;;;;5040149;28;20631;-86
2022/10/27 04:11:24;;;;;;;17.43;12.30;;;9.30;99.90;;;;;;5049354;28;20618;-87
2022/10/27 04:13:50;;;;;;;13.67;11.47;;;9.20;99.90;;;;;;5049613;28;20998;-87
2022/10/27 04:16:18;;;;;;;13.27;11.30;;;9.90;99.90;;;;;;5041106;28;20648;-86
2022/10/27 04:18:45;;;;;;;17.20;12.40;;;9.50;99.90;;;;;;5046821;28;20634;-87
2022/10/27 04:21:12;;;;;;;14.73;10.80;;;9.50;99.90;;;;;;5040555;28;20669;-87
2022/10/27 04:23:39;;;;;;;12.13;9.50;;;9.50;99.90;;;;;;5045651;28;20633;-87
2022/10/27 04:26:06;;;;;;;11.90;10.80;;;9.40;99.90;;;;;;5036283;28;20988;-87
2022/10/27 04:28:33;;;;;;;18.67;11.40;;;9.20;99.90;;;;;;5044679;28;20638;-87
2022/10/27 04:30:59;;;;;;;11.37;10.07;;;9.30;99.90;;;;;;5047124;28;20685;-87
2022/10/27 04:33:27;;;;;;;14.73;10.07;;;9.00;99.90;;;;;;5046494;28;21532;-87
2022/10/27 04:35:54;;;;;;;12.67;11.13;;;9.20;99.90;;;;;;5037628;28;20623;-87
2022/10/27 04:38:21;;;;;;;12.27;11.07;;;9.30;99.90;;;;;;5048037;28;20629;-86
2022/10/27 04:40:50;;;;;;;23.83;11.23;;;9.30;99.90;;;;;;5051125;28;20669;-87
2022/10/27 04:43:17;;;;;;;15.43;11.90;;;9.60;99.90;;;;;;5042003;28;20631;-88
2022/10/27 04:45:45;;;;;;;12.20;10.63;;;9.30;99.90;;;;;;5048728;28;21166;-86
2022/10/27 04:48:12;;;;;;;13.90;10.50;;;9.80;99.90;;;;;;5047820;28;20734;-88
2022/10/27 04:50:40;;;;;;;14.43;11.40;;;9.20;99.90;;;;;;5043398;28;20630;-88
2022/10/27 04:53:07;;;;;;;14.00;10.40;;;9.20;99.90;;;;;;5045046;28;20626;-88
2022/10/27 04:55:34;;;;;;;13.30;10.70;;;9.50;99.90;;;;;;5035718;28;20701;-87
2022/10/27 04:58:01;;;;;;;11.80;10.00;;;9.00;99.90;;;;;;5043840;28;20661;-87
2022/10/27 05:00:28;;;;;;;11.90;10.23;;;9.20;99.90;;;;;;5042128;28;20649;-87
2022/10/27 05:02:55;;;;;;;11.13;9.57;;;9.40;99.90;;;;;;5045745;28;20661;-87
2022/10/27 05:05:23;;;;;;;22.50;12.27;;;8.90;99.90;;;;;;5048175;28;20731;-88
2022/10/27 05:07:56;;;;;;;20.97;19.00;;;8.90;99.90;;;;;;5042726;28;20646;-87
2022/10/27 05:10:24;;;;;;;17.57;11.97;;;9.60;99.90;;;;;;5050793;28;20622;-88
2022/10/27 05:12:50;;;;;;;23.90;15.20;;;9.10;99.90;;;;;;5042263;28;20619;-88
2022/10/27 05:15:17;;;;;;;55.00;17.20;;;9.60;99.90;;;;;;5042652;28;20657;-88
2022/10/27 05:17:44;;;;;;;32.57;16.70;;;9.60;99.90;;;;;;5037739;28;20657;-87
2022/10/27 05:20:12;;;;;;;25.50;14.90;;;9.40;99.90;;;;;;5042308;28;20642;-87
2022/10/27 05:22:39;;;;;;;25.80;15.40;;;9.60;99.90;;;;;;5044207;28;21428;-88
2022/10/27 05:25:08;;;;;;;48.63;19.20;;;9.10;99.90;;;;;;5044602;28;20997;-87
2022/10/27 05:27:35;;;;;;;69.23;17.33;;;9.50;99.90;;;;;;5050178;28;20653;-88
2022/10/27 05:30:02;;;;;;;59.23;18.63;;;9.10;99.90;;;;;;5042664;28;20630;-87
2022/10/27 05:32:29;;;;;;;69.17;16.10;;;9.60;99.90;;;;;;5047705;28;20621;-87
2022/10/27 05:34:56;;;;;;;92.87;19.40;;;9.60;99.90;;;;;;5039498;28;20630;-87
2022/10/27 05:37:24;;;;;;;62.50;14.57;;;9.30;99.90;;;;;;5044191;28;20684;-87
2022/10/27 05:39:51;;;;;;;76.67;19.67;;;9.00;99.90;;;;;;5025763;28;20640;-87
2022/10/27 05:42:19;;;;;;;90.57;21.07;;;8.90;99.90;;;;;;5045079;28;20672;-87
2022/10/27 05:44:45;;;;;;;82.60;20.07;;;9.00;99.90;;;;;;5039185;28;20993;-87
2022/10/27 05:47:12;;;;;;;109.67;23.77;;;8.90;99.90;;;;;;5057408;28;20650;-86
2022/10/27 05:49:39;;;;;;;106.30;22.80;;;8.90;99.90;;;;;;5081143;28;20633;-87
2022/10/27 05:52:06;;;;;;;107.80;21.83;;;8.80;99.90;;;;;;5046549;28;20629;-87
2022/10/27 05:54:32;;;;;;;105.93;20.87;;;8.80;99.90;;;;;;5040677;28;20625;-89
2022/10/27 05:56:59;;;;;;;98.27;19.67;;;8.70;99.90;;;;;;5037611;28;20660;-85
2022/10/27 05:59:27;;;;;;;174.03;28.90;;;9.20;99.90;;;;;;5046600;28;20626;-86
2022/10/27 06:01:54;;;;;;;164.50;24.20;;;9.20;99.90;;;;;;5045003;28;20735;-86
2022/10/27 06:04:21;;;;;;;291.07;36.33;;;9.00;99.90;;;;;;5043613;28;20645;-86
2022/10/27 06:06:49;;;;;;;291.00;36.10;;;9.20;99.90;;;;;;5045982;28;20746;-88
2022/10/27 06:09:15;;;;;;;179.10;25.50;;;9.10;99.90;;;;;;5040598;28;20623;-88
2022/10/27 06:11:42;;;;;;;280.33;36.70;;;9.10;99.90;;;;;;5058399;28;20625;-88
2022/10/27 06:14:09;;;;;;;118.07;21.00;;;8.90;99.90;;;;;;5063338;28;20621;-88
2022/10/27 06:16:37;;;;;;;221.47;27.10;;;8.80;99.90;;;;;;5045673;28;20653;-88
2022/10/27 06:19:04;;;;;;;227.07;28.57;;;8.90;99.90;;;;;;5040254;28;20626;-88
2022/10/27 06:21:31;;;;;;;143.70;38.93;;;8.90;99.90;;;;;;5042144;28;20630;-88
2022/10/27 06:23:58;;;;;;;343.83;42.23;;;9.00;99.90;;;;;;5043262;28;20625;-88
2022/10/27 06:26:25;;;;;;;225.97;30.73;;;9.00;99.90;;;;;;5036642;28;20686;-88
2022/10/27 06:28:51;;;;;;;111.80;22.20;;;9.50;99.90;;;;;;5042638;28;21479;-88
2022/10/27 06:31:18;;;;;;;219.07;25.70;;;9.50;99.90;;;;;;5043270;28;21154;-88
2022/10/27 06:33:46;;;;;;;374.67;40.63;;;9.30;99.90;;;;;;5039628;28;20623;-88
2022/10/27 06:36:13;;;;;;;479.83;40.27;;;9.10;99.90;;;;;;5038403;28;20701;-88
2022/10/27 06:38:40;;;;;;;521.23;47.03;;;9.40;99.90;;;;;;5041134;28;20691;-89
2022/10/27 06:41:07;;;;;;;357.80;29.27;;;9.10;99.90;;;;;;5038335;28;20634;-89
2022/10/27 06:43:33;;;;;;;637.60;48.03;;;9.00;99.90;;;;;;5038082;28;20982;-88
2022/10/27 06:46:00;;;;;;;258.40;25.80;;;9.10;99.90;;;;;;5031955;28;21202;-89
2022/10/27 06:48:27;;;;;;;412.87;35.57;;;9.50;99.90;;;;;;5035160;28;21409;-88
2022/10/27 06:50:55;;;;;;;552.23;46.23;;;9.60;99.90;;;;;;5041526;28;20648;-88
2022/10/27 06:53:22;;;;;;;368.93;38.33;;;9.20;99.90;;;;;;5042759;28;20615;-88
2022/10/27 06:55:49;;;;;;;353.43;32.20;;;9.30;99.90;;;;;;5044224;28;21135;-88
2022/10/27 06:58:18;;;;;;;229.93;27.40;;;9.20;99.90;;;;;;5039249;28;21086;-87
2022/10/27 07:00:46;;;;;;;246.80;26.90;;;9.30;99.90;;;;;;5043626;28;21005;-88
2022/10/27 07:03:13;;;;;;;173.33;24.30;;;9.30;99.90;;;;;;5047082;28;20661;-89
2022/10/27 07:05:40;;;;;;;319.77;29.83;;;9.90;99.90;;;;;;5041537;28;20634;-88
2022/10/27 07:08:08;;;;;;;223.43;31.33;;;9.60;99.90;;;;;;5046936;28;20645;-88
2022/10/27 07:10:35;;;;;;;169.33;25.87;;;9.70;99.90;;;;;;5039156;28;20627;-88
2022/10/27 07:13:02;;;;;;;239.50;24.70;;;9.60;99.90;;;;;;5042485;28;20632;-87
2022/10/27 07:15:31;;;;;;;157.57;20.00;;;9.50;99.90;;;;;;5037259;28;20633;-88
2022/10/27 07:18:00;;;;;;;227.37;24.33;;;10.00;99.90;;;;;;5043576;28;20659;-87
2022/10/27 07:20:28;;;;;;;271.20;26.73;;;9.90;99.90;;;;;;5039225;28;20626;-88
2022/10/27 07:23:14;;;;;;;213.63;23.30;;;9.60;99.90;;;;;;5044458;28;20677;-88
2022/10/27 07:25:41;;;;;;;142.63;16.67;;;9.50;99.90;;;;;;5058366;28;20609;-87
2022/10/27 07:28:08;;;;;;;138.80;20.77;;;10.00;99.90;;;;;;5063828;28;20664;-88
2022/10/27 07:30:37;;;;;;;244.87;25.27;;;10.00;99.90;;;;;;5053639;28;20622;-88
2022/10/27 07:33:04;;;;;;;99.87;13.50;;;10.10;99.90;;;;;;5042574;28;20638;-89
2022/10/27 07:35:32;;;;;;;150.60;18.87;;;10.10;99.90;;;;;;5034374;28;21024;-88
2022/10/27 07:37:59;;;;;;;124.33;15.80;;;10.00;99.90;;;;;;5043107;28;21310;-89
2022/10/27 07:40:27;;;;;;;132.13;16.57;;;9.90;99.90;;;;;;5046598;28;20633;-89
2022/10/27 07:42:56;;;;;;;102.37;15.23;;;10.00;99.90;;;;;;5055391;28;20669;-89
2022/10/27 07:45:25;;;;;;;119.70;16.60;;;10.60;99.90;;;;;;5055190;28;20626;-89
2022/10/27 07:47:53;;;;;;;287.40;25.20;;;10.10;99.90;;;;;;5047781;28;20651;-89
2022/10/27 07:50:22;;;;;;;125.23;18.07;;;10.40;99.90;;;;;;5057715;28;20623;-88
2022/10/27 07:52:51;;;;;;;167.53;20.53;;;10.20;99.90;;;;;;5047999;28;20641;-89
2022/10/27 07:55:20;;;;;;;162.87;20.57;;;10.50;99.90;;;;;;5044536;28;20648;-88
2022/10/27 07:57:57;;;;;;;131.33;17.20;;;10.50;99.90;;;;;;5041279;28;21208;-88
2022/10/27 08:00:26;;;;;;;146.70;17.30;;;10.10;99.90;;;;;;5055644;28;20640;-89
2022/10/27 08:02:53;;;;;;;133.00;16.77;;;10.10;99.90;;;;;;5041408;28;20657;-88
2022/10/27 08:05:20;;;;;;;160.30;17.63;;;10.50;99.90;;;;;;5042576;28;20675;-88
2022/10/27 08:07:47;;;;;;;162.53;17.30;;;10.40;99.90;;;;;;5039198;28;20649;-86
2022/10/27 08:10:14;;;;;;;304.17;26.93;;;10.50;99.90;;;;;;5037603;28;20646;-88
2022/10/27 08:12:43;;;;;;;300.83;24.57;;;10.30;99.90;;;;;;5046300;28;20622;-89
2022/10/27 08:15:12;;;;;;;146.20;15.90;;;10.20;99.90;;;;;;5037188;28;20635;-89
2022/10/27 08:17:40;;;;;;;167.60;17.40;;;10.50;99.90;;;;;;5043990;28;20655;-89
2022/10/27 08:20:08;;;;;;;107.33;22.13;;;11.10;99.90;;;;;;5030419;28;20630;-89
2022/10/27 08:22:35;;;;;;;137.67;25.53;;;11.20;99.90;;;;;;5039305;28;20662;-89
2022/10/27 08:25:02;;;;;;;39.63;13.63;;;11.00;99.90;;;;;;5040572;28;20637;-89
2022/10/27 08:27:29;;;;;;;14.83;8.77;;;11.20;99.90;;;;;;5035935;28;20682;-88
2022/10/27 08:29:55;;;;;;;9.33;8.53;;;12.00;99.90;;;;;;5039250;28;20630;-88
2022/10/27 08:32:24;;;;;;;15.50;10.80;;;11.70;99.90;;;;;;5041588;28;20638;-88
2022/10/27 08:34:51;;;;;;;12.07;10.97;;;12.30;99.90;;;;;;5041746;28;21230;-89
2022/10/27 08:37:17;;;;;;;13.43;12.33;;;12.40;99.90;;;;;;5044416;28;21243;-88
2022/10/27 08:39:44;;;;;;;13.67;12.47;;;12.70;99.90;;;;;;5054467;28;20603;-88
2022/10/27 08:42:17;;;;;;;11.50;9.00;;;12.80;99.90;;;;;;5057427;28;20630;-89
2022/10/27 08:44:49;;;;;;;12.23;8.50;;;13.00;99.90;;;;;;5059915;28;20614;-89
2022/10/27 08:47:21;;;;;;;10.70;9.57;;;13.30;99.90;;;;;;5062138;28;20703;-90
2022/10/27 08:49:55;;;;;;;15.80;11.30;;;13.20;99.90;;;;;;5061751;28;20622;-90
2022/10/27 08:52:29;;;;;;;13.70;9.67;;;13.40;99.90;;;;;;5036335;28;21377;-90
2022/10/27 08:55:02;;;;;;;12.77;8.53;;;13.60;99.90;;;;;;5043330;28;20585;-89
2022/10/27 08:57:33;;;;;;;9.83;8.83;;;13.70;99.90;;;;;;5041040;28;20661;-89
2022/10/27 09:00:01;;;;;;;16.70;8.17;;;13.90;99.90;;;;;;5039815;28;20642;-89
2022/10/27 09:02:47;;;;;;;10.40;8.10;;;14.10;99.90;;;;;;5041984;28;20657;-88
2022/10/27 09:05:31;;;;;;;8.90;8.00;;;14.20;99.90;;;;;;5043068;28;20618;-89
2022/10/27 09:08:03;;;;;;;10.20;7.40;;;14.40;99.90;;;;;;5027279;28;20634;-89
2022/10/27 09:10:41;;;;;;;16.93;8.47;;;14.60;99.90;;;;;;5040008;28;20628;-92
2022/10/27 09:13:18;;;;;;;26.17;8.50;;;14.90;99.90;;;;;;5039927;28;20980;-89
2022/10/27 09:15:48;;;;;;;10.83;7.37;;;15.10;99.90;;;;;;5046509;28;20649;-90
2022/10/27 09:18:24;;;;;;;11.40;7.37;;;15.50;99.90;;;;;;5039123;28;20637;-89
2022/10/27 09:20:55;;;;;;;9.10;6.00;;;15.80;99.90;;;;;;5042845;28;20641;-91
2022/10/27 09:23:28;;;;;;;11.20;8.63;;;16.20;99.90;;;;;;5036981;28;20673;-90
2022/10/27 09:25:58;;;;;;;9.20;6.03;;;16.40;99.90;;;;;;5044426;28;21222;-89
2022/10/27 09:28:31;;;;;;;6.40;5.80;;;16.90;99.90;;;;;;5041155;28;21161;-90
2022/10/27 09:31:00;;;;;;;7.80;6.00;;;17.10;99.90;;;;;;5041234;28;20625;-88
2022/10/27 09:33:29;;;;;;;13.07;6.63;;;17.60;99.90;;;;;;5045558;28;20622;-91
2022/10/27 09:35:59;;;;;;;6.20;4.97;;;18.10;99.90;;;;;;5048421;28;21228;-91
2022/10/27 09:38:27;;;;;;;8.47;4.87;;;18.40;99.90;;;;;;5042400;28;21107;-90
2022/10/27 09:40:55;;;;;;;6.00;4.30;;;18.90;99.90;;;;;;5049448;28;20665;-88
2022/10/27 09:43:23;;;;;;;5.60;4.53;;;19.50;99.90;;;;;;5045360;28;20662;-90
2022/10/27 09:45:59;;;;;;;7.93;6.03;;;20.00;99.90;;;;;;5044320;28;21287;-88
2022/10/27 09:48:28;;;;;;;4.97;4.23;;;20.10;99.90;;;;;;5029304;28;20641;-90
2022/10/27 09:51:05;;;;;;;8.20;5.57;;;20.20;99.90;;;;;;5045363;28;20640;-90
2022/10/27 09:53:46;;;;;;;5.13;4.17;;;20.40;99.90;;;;;;5048412;28;20617;-90
2022/10/27 09:56:16;;;;;;;5.37;4.50;;;21.40;99.90;;;;;;5043048;28;20781;-91
2022/10/27 09:58:55;;;;;;;10.40;4.70;;;21.40;99.90;;;;;;5055945;28;20599;-89
2022/10/27 10:01:23;;;;;;;8.13;4.20;;;21.20;99.90;;;;;;5047450;28;20622;-90
2022/10/27 10:03:56;;;;;;;6.70;4.30;;;22.00;99.90;;;;;;5059112;28;20662;-89
2022/10/27 10:06:33;;;;;;;7.80;4.90;;;22.40;99.90;;;;;;5040802;28;20658;-88
2022/10/27 10:09:21;;;;;;;8.23;6.70;;;21.60;99.90;;;;;;5045887;28;20982;-89
2022/10/27 10:11:48;;;;;;;11.27;8.47;;;22.10;99.90;;;;;;5041606;28;20633;-89
2022/10/27 10:14:22;;;;;;;17.63;10.97;;;22.60;99.90;;;;;;5039279;28;21194;-90
2022/10/27 10:16:50;;;;;;;12.13;7.40;;;23.60;99.90;;;;;;5037540;28;21209;-90
2022/10/27 10:19:18;;;;;;;34.73;24.50;;;22.90;99.90;;;;;;5040439;28;20977;-90
2022/10/27 10:21:49;;;;;;;23.13;15.63;;;23.50;99.90;;;;;;5045770;28;20680;-90
2022/10/27 10:24:19;;;;;;;8.73;6.37;;;23.90;97.10;;;;;;5042851;28;21027;-90
2022/10/27 10:26:47;;;;;;;11.30;6.00;;;23.70;98.00;;;;;;5040453;28;20642;-90
2022/10/27 10:29:26;;;;;;;9.43;6.40;;;24.10;96.80;;;;;;5041467;28;20642;-90
2022/10/27 10:32:09;;;;;;;9.53;4.20;;;24.30;95.00;;;;;;5042824;28;20630;-90
2022/10/27 10:34:36;;;;;;;10.53;4.10;;;25.30;93.40;;;;;;5044700;28;20633;-90
2022/10/27 10:37:25;;;;;;;7.13;4.23;;;25.30;91.30;;;;;;5045536;28;20657;-90
2022/10/27 10:39:54;;;;;;;8.13;3.60;;;24.10;95.50;;;;;;5040647;28;20623;-90
2022/10/27 10:42:21;;;;;;;7.93;4.10;;;25.30;91.20;;;;;;5045163;28;20993;-90
2022/10/27 10:45:09;;;;;;;5.03;3.23;;;26.20;85.10;;;;;;5038106;28;20673;-90
2022/10/27 10:47:37;;;;;;;6.57;4.03;;;25.90;87.90;;;;;;5041314;28;20645;-89
2022/10/27 10:50:06;;;;;;;9.40;4.27;;;25.20;90.80;;;;;;5040434;28;20628;-89
2022/10/27 10:52:38;;;;;;;12.73;4.03;;;24.70;90.90;;;;;;5039665;28;21161;-90
2022/10/27 10:55:08;;;;;;;8.67;3.80;;;25.60;88.70;;;;;;5039441;28;20621;-90
2022/10/27 10:57:41;;;;;;;9.57;4.00;;;26.00;88.40;;;;;;5040127;28;20648;-90
2022/10/27 11:00:16;;;;;;;7.63;3.80;;;27.40;80.30;;;;;;5040768;28;20737;-90
2022/10/27 11:02:50;;;;;;;11.67;4.83;;;27.70;75.90;;;;;;5038264;28;20625;-90
2022/10/27 11:05:21;;;;;;;5.80;3.80;;;27.90;75.90;;;;;;5047283;28;20616;-90
2022/10/27 11:07:51;;;;;;;5.83;3.80;;;27.90;74.00;;;;;;5049176;28;20713;-90
2022/10/27 11:10:41;;;;;;;9.50;4.50;;;28.10;73.60;;;;;;5052535;28;20618;-90
2022/10/27 11:13:17;;;;;;;8.07;3.77;;;27.70;75.30;;;;;;5052195;28;20701;-90
2022/10/27 11:15:48;;;;;;;9.43;4.07;;;27.70;73.40;;;;;;5070830;28;20613;-90
2022/10/27 11:18:16;;;;;;;7.37;3.87;;;28.90;71.60;;;;;;5064591;28;20624;-91
2022/10/27 11:20:47;;;;;;;8.97;3.80;;;28.70;70.80;;;;;;5068852;28;20626;-90
2022/10/27 11:23:21;;;;;;;9.73;3.83;;;29.70;65.60;;;;;;5057145;28;20644;-90
2022/10/27 11:25:49;;;;;;;5.70;3.77;;;29.30;66.40;;;;;;5050825;28;20621;-90
2022/10/27 11:28:27;;;;;;;9.00;4.03;;;29.70;67.40;;;;;;5040486;28;20625;-90
2022/10/27 11:30:59;;;;;;;7.43;4.20;;;27.50;73.70;;;;;;5041957;28;20641;-91
2022/10/27 11:33:37;;;;;;;5.87;3.83;;;28.90;68.00;;;;;;5040173;28;20645;-90
2022/10/27 11:36:11;;;;;;;8.13;3.70;;;28.80;67.60;;;;;;5040558;28;20653;-91
2022/10/27 11:38:49;;;;;;;12.17;3.83;;;29.30;63.80;;;;;;5037667;28;20634;-91
2022/10/27 11:41:24;;;;;;;8.07;3.73;;;29.80;65.60;;;;;;5041257;28;20625;-92
2022/10/27 11:43:59;;;;;;;7.43;3.90;;;30.90;61.30;;;;;;5044063;28;20732;-91
2022/10/27 11:46:32;;;;;;;6.30;3.67;;;31.40;59.90;;;;;;5037816;28;20305;-91
2022/10/27 11:49:03;;;;;;;8.43;4.00;;;29.50;58.90;;;;;;5042414;28;20644;-91
2022/10/27 11:51:36;;;;;;;8.63;4.00;;;30.20;60.90;;;;;;5043763;28;20901;-91
2022/10/27 11:54:03;;;;;;;3.93;3.40;;;31.50;57.30;;;;;;5038177;28;20579;-91
2022/10/27 11:56:49;;;;;;;7.03;3.40;;;31.40;57.10;;;;;;5035456;28;20310;-92
2022/10/27 11:59:22;;;;;;;8.77;3.80;;;31.00;55.90;;;;;;5043262;28;20235;-90
2022/10/27 12:01:59;;;;;;;8.63;3.90;;;30.50;56.50;;;;;;5047074;28;20217;-91
2022/10/27 12:04:37;;;;;;;5.80;4.00;;;31.30;56.20;;;;;;5042438;28;20228;-91
2022/10/27 12:07:11;;;;;;;6.40;4.03;;;30.00;58.20;;;;;;5036724;28;20227;-91
2022/10/27 12:09:54;;;;;;;6.70;3.80;;;31.10;56.10;;;;;;5043620;28;20289;-91
2022/10/27 12:12:28;;;;;;;4.90;3.00;;;31.20;54.50;;;;;;5037713;28;20219;-91
2022/10/27 12:14:59;;;;;;;10.10;4.23;;;30.90;56.20;;;;;;5041821;28;20716;-91
2022/10/27 12:17:35;;;;;;;6.53;3.43;;;31.20;54.10;;;;;;5041234;28;20756;-91
2022/10/27 12:20:04;;;;;;;8.27;2.83;;;31.60;54.70;;;;;;5042441;28;20207;-91
2022/10/27 12:22:38;;;;;;;7.22;4.18;;;31.70;53.60;;;;;;5046202;28;20612;-92
2022/10/27 12:25:10;;;;;;;4.70;3.25;;;31.70;52.40;;;;;;5040993;28;20229;-92
2022/10/27 12:27:41;;;;;;;7.18;3.28;;;32.00;52.50;;;;;;5038206;28;20586;-91
2022/10/27 12:30:13;;;;;;;12.95;3.40;;;31.50;51.60;;;;;;5039435;28;20213;-90
2022/10/27 12:32:46;;;;;;;5.70;3.00;;;32.80;52.30;;;;;;5040146;28;20940;-91
2022/10/27 12:35:20;;;;;;;10.35;3.38;;;32.90;49.60;;;;;;5042507;28;20298;-91
2022/10/27 12:37:55;;;;;;;8.77;3.90;;;32.80;49.40;;;;;;5042473;28;20226;-90
2022/10/27 12:40:29;;;;;;;11.95;3.50;;;32.30;49.60;;;;;;5064488;28;20259;-90
2022/10/27 12:43:03;;;;;;;9.70;4.22;;;32.10;50.00;;;;;;5059835;28;20527;-91
2022/10/27 12:45:41;;;;;;;10.20;3.72;;;31.30;50.50;;;;;;5040469;28;20732;-90
2022/10/27 12:48:18;;;;;;;9.63;4.03;;;31.90;50.50;;;;;;5035178;28;20231;-90